createdAt,value
2022-10-19T00:00:47.997Z,3.45
2022-10-19T00:03:18.265Z,2.92
2022-10-19T00:05:47.583Z,3.47
2022-10-19T00:08:14.363Z,2.42
2022-10-19T00:10:42.010Z,5.07
2022-10-19T00:13:08.791Z,4.65
2022-10-19T00:15:40.178Z,2.45
2022-10-19T00:18:08.055Z,3.47
2022-10-19T00:20:36.187Z,2.35
2022-10-19T00:23:03.014Z,3.47
2022-10-19T00:25:29.854Z,5.47
2022-10-19T00:27:56.547Z,4.50
2022-10-19T00:30:23.381Z,3.10
2022-10-19T00:32:50.138Z,2.83
2022-10-19T00:35:16.922Z,2.92
2022-10-19T00:37:43.639Z,2.40
2022-10-19T00:40:10.827Z,2.03
2022-10-19T00:42:37.619Z,2.53
2022-10-19T00:45:14.456Z,2.47
2022-10-19T00:47:42.663Z,2.65
2022-10-19T00:50:10.572Z,2.17
2022-10-19T00:52:37.476Z,2.45
2022-10-19T00:55:04.856Z,2.13
2022-10-19T00:57:32.105Z,3.10
2022-10-19T00:59:59.815Z,3.05
2022-10-19T01:02:26.892Z,1.67
2022-10-19T01:04:54.013Z,3.10
2022-10-19T01:07:21.376Z,3.55
2022-10-19T01:09:48.391Z,2.78
2022-10-19T01:12:21.144Z,4.35
2022-10-19T01:15:20.170Z,4.25
2022-10-19T01:18:13.090Z,3.33
2022-10-19T01:21:21.719Z,5.35
2022-10-19T01:24:07.023Z,2.40
2022-10-19T01:26:56.716Z,5.00
2022-10-19T01:30:01.206Z,2.88
2022-10-19T01:32:41.675Z,2.78
2022-10-19T01:35:22.807Z,3.35
2022-10-19T01:38:01.803Z,2.40
2022-10-19T01:40:34.409Z,3.67
2022-10-19T01:43:02.645Z,2.42
2022-10-19T01:45:37.235Z,1.80
2022-10-19T01:48:10.560Z,2.17
2022-10-19T01:50:51.127Z,3.15
2022-10-19T01:53:19.181Z,2.25
2022-10-19T01:55:49.230Z,2.42
2022-10-19T01:58:18.309Z,3.00
2022-10-19T02:03:13.145Z,3.63
2022-10-19T02:05:41.137Z,1.95
2022-10-19T02:08:17.712Z,3.53
2022-10-19T02:10:45.297Z,3.42
2022-10-19T02:13:14.246Z,2.30
2022-10-19T02:15:44.168Z,2.30
2022-10-19T02:18:13.061Z,3.95
2022-10-19T02:20:39.904Z,2.47
2022-10-19T02:23:07.233Z,3.00
2022-10-19T02:25:34.255Z,2.53
2022-10-19T02:28:02.204Z,2.75
2022-10-19T02:30:29.079Z,4.30
2022-10-19T02:32:55.924Z,3.63
2022-10-19T02:35:23.057Z,3.08
2022-10-19T02:37:49.994Z,4.60
2022-10-19T02:40:16.963Z,3.25
2022-10-19T02:42:54.471Z,2.35
2022-10-19T02:45:31.256Z,3.15
2022-10-19T02:48:07.409Z,3.42
2022-10-19T02:50:34.423Z,3.08
2022-10-19T02:53:01.571Z,5.45
2022-10-19T02:55:29.995Z,3.45
2022-10-19T02:57:57.491Z,4.18
2022-10-19T03:00:24.316Z,4.68
2022-10-19T03:02:51.404Z,2.63
2022-10-19T03:05:18.094Z,3.35
2022-10-19T03:07:44.820Z,3.08
2022-10-19T03:10:11.662Z,4.22
2022-10-19T03:12:38.390Z,4.45
2022-10-19T03:15:05.523Z,3.13
2022-10-19T03:17:32.490Z,2.17
2022-10-19T03:19:59.478Z,2.70
2022-10-19T03:22:26.203Z,2.85
2022-10-19T03:24:52.958Z,2.50
2022-10-19T03:27:19.840Z,3.05
2022-10-19T03:29:46.711Z,2.42
2022-10-19T03:32:13.487Z,2.13
2022-10-19T03:34:40.244Z,2.63
2022-10-19T03:37:08.616Z,2.80
2022-10-19T03:39:35.530Z,2.97
2022-10-19T03:42:02.285Z,2.33
2022-10-19T03:44:29.198Z,3.40
2022-10-19T03:46:56.010Z,4.13
2022-10-19T03:49:22.713Z,5.03
2022-10-19T03:51:49.532Z,4.00
2022-10-19T03:54:16.815Z,4.63
2022-10-19T03:56:44.010Z,5.35
2022-10-19T03:59:13.210Z,4.07
2022-10-19T04:01:43.451Z,2.30
2022-10-19T04:04:16.467Z,2.78
2022-10-19T04:06:45.229Z,2.95
2022-10-19T04:09:15.372Z,4.97
2022-10-19T04:11:42.648Z,6.68
2022-10-19T04:14:15.937Z,6.45
2022-10-19T04:16:49.763Z,4.00
2022-10-19T04:19:17.354Z,3.05
2022-10-19T04:21:44.832Z,3.38
2022-10-19T04:24:16.678Z,3.50
2022-10-19T04:26:46.237Z,2.85
2022-10-19T04:29:13.925Z,2.65
2022-10-19T04:31:41.189Z,3.15
2022-10-19T04:34:08.681Z,4.60
2022-10-19T04:36:36.225Z,3.55
2022-10-19T04:39:04.441Z,2.88
2022-10-19T04:41:31.735Z,4.75
2022-10-19T04:44:00.001Z,2.85
2022-10-19T04:46:27.579Z,3.97
2022-10-19T04:48:54.907Z,3.55
2022-10-19T04:51:22.131Z,5.32
2022-10-19T04:53:49.097Z,8.57
2022-10-19T04:56:19.751Z,6.10
2022-10-19T04:58:47.101Z,4.80
2022-10-19T05:01:14.960Z,4.47
2022-10-19T05:03:41.766Z,4.35
2022-10-19T05:06:09.456Z,3.92
2022-10-19T05:08:36.978Z,5.00
2022-10-19T05:11:06.579Z,6.18
2022-10-19T05:13:33.770Z,7.03
2022-10-19T05:16:02.400Z,5.22
2022-10-19T05:18:29.452Z,5.50
2022-10-19T05:21:06.726Z,5.38
2022-10-19T05:23:34.219Z,5.18
2022-10-19T05:26:06.409Z,6.05
2022-10-19T05:28:33.885Z,4.72
2022-10-19T05:31:10.815Z,11.30
2022-10-19T05:33:38.350Z,13.90
2022-10-19T05:36:14.160Z,12.15
2022-10-19T05:38:41.485Z,15.02
2022-10-19T05:41:08.223Z,6.80
2022-10-19T05:43:35.044Z,5.18
2022-10-19T05:46:07.521Z,6.38
2022-10-19T05:48:35.088Z,9.02
2022-10-19T05:51:03.132Z,8.20
2022-10-19T05:53:29.975Z,11.25
2022-10-19T05:55:56.809Z,5.28
2022-10-19T05:58:23.845Z,4.32
2022-10-19T06:00:58.644Z,6.10
2022-10-19T06:03:27.227Z,10.63
2022-10-19T06:05:54.351Z,7.07
2022-10-19T06:08:22.659Z,7.32
2022-10-19T06:10:49.951Z,10.50
2022-10-19T06:13:17.740Z,10.90
2022-10-19T06:15:44.588Z,8.93
2022-10-19T06:18:12.558Z,14.98
2022-10-19T06:20:42.087Z,16.45
2022-10-19T06:23:09.357Z,18.15
2022-10-19T06:25:37.634Z,16.08
2022-10-19T06:28:04.489Z,18.50
2022-10-19T06:30:31.291Z,17.75
2022-10-19T06:32:59.042Z,14.73
2022-10-19T06:35:25.998Z,15.40
2022-10-19T06:37:52.705Z,21.60
2022-10-19T06:40:19.513Z,15.93
2022-10-19T06:42:46.326Z,13.45
2022-10-19T06:45:13.074Z,12.82
2022-10-19T06:47:39.957Z,14.45
2022-10-19T06:50:07.388Z,10.27
2022-10-19T06:52:35.502Z,16.45
2022-10-19T06:55:02.624Z,12.05
2022-10-19T06:57:29.535Z,15.02
2022-10-19T06:59:56.365Z,13.30
2022-10-19T07:02:23.140Z,12.52
2022-10-19T07:04:50.235Z,11.02
2022-10-19T07:07:16.984Z,13.65
2022-10-19T07:09:43.793Z,11.23
2022-10-19T07:12:10.975Z,14.18
2022-10-19T07:14:39.743Z,12.10
2022-10-19T07:17:07.493Z,13.88
2022-10-19T07:19:34.975Z,10.25
2022-10-19T07:22:01.781Z,10.98
2022-10-19T07:24:28.448Z,10.77
2022-10-19T07:26:55.568Z,10.25
2022-10-19T07:29:22.486Z,11.45
2022-10-19T07:31:49.351Z,12.57
2022-10-19T07:34:16.643Z,11.10
2022-10-19T07:36:48.189Z,10.30
2022-10-19T07:39:17.223Z,7.75
2022-10-19T07:41:44.371Z,11.52
2022-10-19T07:44:14.803Z,12.27
2022-10-19T07:46:42.710Z,13.57
2022-10-19T07:49:13.205Z,12.52
2022-10-19T07:51:40.659Z,9.98
2022-10-19T07:54:07.581Z,11.82
2022-10-19T07:56:35.141Z,11.55
2022-10-19T07:59:02.852Z,14.60
2022-10-19T08:01:32.167Z,16.85
2022-10-19T08:06:46.739Z,12.90
2022-10-19T08:09:33.338Z,13.43
2022-10-19T08:12:00.352Z,14.98
2022-10-19T08:14:27.123Z,15.13
2022-10-19T08:16:53.851Z,9.98
2022-10-19T08:19:22.608Z,13.07
2022-10-19T08:21:49.411Z,12.35
2022-10-19T08:24:17.934Z,12.95
2022-10-19T08:26:44.816Z,15.88
2022-10-19T08:29:31.511Z,15.00
2022-10-19T08:32:19.229Z,18.98
2022-10-19T08:35:10.707Z,18.33
2022-10-19T08:37:58.880Z,15.43
2022-10-19T08:40:31.196Z,10.18
2022-10-19T08:43:03.937Z,12.45
2022-10-19T08:45:33.625Z,16.40
2022-10-19T08:48:11.159Z,9.98
2022-10-19T08:50:43.298Z,14.73
2022-10-19T08:53:16.968Z,15.15
2022-10-19T08:56:06.602Z,12.82
2022-10-19T08:58:33.379Z,10.25
2022-10-19T09:01:07.962Z,8.63
2022-10-19T09:06:37.711Z,10.68
2022-10-19T09:09:05.234Z,8.70
2022-10-19T09:11:37.654Z,7.13
2022-10-19T09:14:56.947Z,4.70
2022-10-19T09:17:25.347Z,4.40
2022-10-19T09:19:52.417Z,11.27
2022-10-19T09:22:27.500Z,4.70
2022-10-19T09:25:08.810Z,3.00
2022-10-19T09:27:39.159Z,4.13
2022-10-19T09:30:13.832Z,4.47
2022-10-19T09:32:40.654Z,6.38
2022-10-19T09:35:17.623Z,5.68
2022-10-19T09:37:46.292Z,3.95
2022-10-19T09:40:25.443Z,5.55
2022-10-19T09:42:57.331Z,5.70
2022-10-19T09:45:29.085Z,5.90
2022-10-19T09:47:58.269Z,5.18
2022-10-19T09:50:27.736Z,5.45
2022-10-19T09:52:57.560Z,3.15
2022-10-19T09:55:39.918Z,3.88
2022-10-19T09:58:16.908Z,7.20
2022-10-19T10:00:51.374Z,5.28
2022-10-19T10:03:24.474Z,3.58
2022-10-19T10:05:51.825Z,4.88
2022-10-19T10:08:22.042Z,3.75
2022-10-19T10:10:59.397Z,2.58
2022-10-19T10:13:28.118Z,5.05
2022-10-19T10:15:57.848Z,3.67
2022-10-19T10:18:26.087Z,3.28
2022-10-19T10:21:45.369Z,5.88
2022-10-19T10:24:12.112Z,2.83
2022-10-19T10:26:44.724Z,2.90
2022-10-19T10:29:32.746Z,3.67
2022-10-19T10:32:05.966Z,3.05
2022-10-19T10:34:50.257Z,6.68
2022-10-19T10:37:21.837Z,2.65
2022-10-19T10:39:52.911Z,6.07
2022-10-19T10:42:28.048Z,4.15
2022-10-19T10:44:56.416Z,2.67
2022-10-19T10:47:23.572Z,3.70
2022-10-19T10:49:58.774Z,3.72
2022-10-19T10:52:26.493Z,3.45
2022-10-19T10:57:37.899Z,2.30
2022-10-19T11:02:46.509Z,3.28
2022-10-19T11:05:29.317Z,3.53
2022-10-19T11:08:09.582Z,2.97
2022-10-19T11:11:02.621Z,4.85
2022-10-19T11:13:40.093Z,4.20
2022-10-19T11:16:13.629Z,2.75
2022-10-19T11:19:08.341Z,2.70
2022-10-19T11:21:40.987Z,3.03
2022-10-19T11:24:21.449Z,3.65
2022-10-19T11:27:22.387Z,3.05
2022-10-19T11:29:58.569Z,6.30
2022-10-19T11:32:46.308Z,3.47
2022-10-19T11:35:36.358Z,6.43
2022-10-19T11:38:30.275Z,3.75
2022-10-19T11:41:18.144Z,4.63
2022-10-19T11:44:03.756Z,4.68
2022-10-19T11:46:45.689Z,6.18
2022-10-19T11:50:03.769Z,3.33
2022-10-19T11:52:46.377Z,4.68
2022-10-19T11:55:36.557Z,2.33
2022-10-19T11:58:12.669Z,3.40
2022-10-19T12:00:50.267Z,2.85
2022-10-19T12:03:26.097Z,2.70
2022-10-19T12:06:18.105Z,1.92
2022-10-19T12:09:20.208Z,3.40
2022-10-19T12:12:07.984Z,5.85
2022-10-19T12:14:38.485Z,3.28
2022-10-19T12:17:11.198Z,2.42
2022-10-19T12:19:46.398Z,3.97
2022-10-19T12:22:21.714Z,2.47
2022-10-19T12:24:50.812Z,2.28
2022-10-19T12:27:27.032Z,8.23
2022-10-19T12:29:54.659Z,3.95
2022-10-19T12:35:00.362Z,4.75
2022-10-19T12:37:33.480Z,3.03
2022-10-19T12:40:32.899Z,3.25
2022-10-19T12:43:25.060Z,4.03
2022-10-19T12:45:52.547Z,3.45
2022-10-19T12:48:21.487Z,4.68
2022-10-19T12:50:48.449Z,3.92
2022-10-19T12:53:47.738Z,3.17
2022-10-19T12:56:25.571Z,3.55
2022-10-19T12:58:59.856Z,4.40
2022-10-19T13:01:42.747Z,4.32
2022-10-19T13:04:21.782Z,4.53
2022-10-19T13:06:50.850Z,3.47
2022-10-19T13:09:30.976Z,2.33
2022-10-19T13:12:19.866Z,5.68
2022-10-19T13:14:59.007Z,5.03
2022-10-19T13:17:36.179Z,3.38
2022-10-19T13:20:15.166Z,4.32
2022-10-19T13:23:13.377Z,3.42
2022-10-19T13:25:41.250Z,4.20
2022-10-19T13:28:08.047Z,2.72
2022-10-19T13:30:46.965Z,2.83
2022-10-19T13:33:25.657Z,3.63
2022-10-19T13:36:04.229Z,3.70
2022-10-19T13:38:37.805Z,4.13
2022-10-19T13:41:06.473Z,2.88
2022-10-19T13:43:53.904Z,2.58
2022-10-19T13:46:59.511Z,4.53
2022-10-19T13:49:35.080Z,3.17
2022-10-19T13:52:01.746Z,3.88
2022-10-19T13:54:56.347Z,3.78
2022-10-19T13:57:28.691Z,7.18
2022-10-19T14:00:06.335Z,3.97
2022-10-19T14:02:51.143Z,3.35
2022-10-19T14:05:27.193Z,3.05
2022-10-19T14:08:09.299Z,4.20
2022-10-19T14:10:56.207Z,3.88
2022-10-19T14:13:25.852Z,3.95
2022-10-19T14:15:55.283Z,5.47
2022-10-19T14:18:33.750Z,4.00
2022-10-19T14:21:00.546Z,3.28
2022-10-19T14:23:35.666Z,3.70
2022-10-19T14:26:22.729Z,3.97
2022-10-19T14:31:44.394Z,3.13
2022-10-19T14:34:11.313Z,5.43
2022-10-19T14:36:43.037Z,6.53
2022-10-19T14:39:22.806Z,9.43
2022-10-19T14:41:53.638Z,6.10
2022-10-19T14:44:32.469Z,9.43
2022-10-19T14:47:01.444Z,6.72
2022-10-19T14:49:28.280Z,12.27
2022-10-19T14:52:01.193Z,9.45
2022-10-19T14:54:43.018Z,8.60
2022-10-19T14:57:20.406Z,12.55
2022-10-19T14:59:52.460Z,19.35
2022-10-19T15:02:22.161Z,17.73
2022-10-19T15:04:49.793Z,21.92
2022-10-19T15:07:24.416Z,13.15
2022-10-19T15:10:00.115Z,11.00
2022-10-19T15:12:40.724Z,8.75
2022-10-19T15:15:15.262Z,5.50
2022-10-19T15:20:29.760Z,6.43
2022-10-19T15:22:59.680Z,6.28
2022-10-19T15:25:36.968Z,7.78
2022-10-19T15:28:36.016Z,3.97
2022-10-19T15:31:27.223Z,4.43
2022-10-19T15:34:01.588Z,5.95
2022-10-19T15:36:30.325Z,5.13
2022-10-19T15:39:24.531Z,4.80
2022-10-19T15:41:52.601Z,5.53
2022-10-19T15:44:40.362Z,5.43
2022-10-19T15:47:16.466Z,6.78
2022-10-19T15:49:43.291Z,6.75
2022-10-19T15:52:21.267Z,6.13
2022-10-19T15:54:52.807Z,7.85
2022-10-19T15:57:31.632Z,18.65
2022-10-19T16:00:01.120Z,7.72
2022-10-19T16:02:27.953Z,7.50
2022-10-19T16:04:54.867Z,7.63
2022-10-19T16:07:30.674Z,5.05
2022-10-19T16:09:57.885Z,6.45
2022-10-19T16:12:26.367Z,7.32
2022-10-19T16:14:54.435Z,8.35
2022-10-19T16:17:21.452Z,5.65
2022-10-19T16:19:48.188Z,6.45
2022-10-19T16:22:16.256Z,6.30
2022-10-19T16:24:43.431Z,7.13
2022-10-19T16:27:14.960Z,8.70
2022-10-19T16:29:43.120Z,6.90
2022-10-19T16:32:10.011Z,5.63
2022-10-19T16:34:36.782Z,11.13
2022-10-19T16:37:06.659Z,11.38
2022-10-19T16:39:34.470Z,7.10
2022-10-19T16:42:01.394Z,6.85
2022-10-19T16:44:28.159Z,7.65
2022-10-19T16:46:58.864Z,8.32
2022-10-19T16:49:26.282Z,9.57
2022-10-19T16:51:56.396Z,11.75
2022-10-19T16:54:25.854Z,10.82
2022-10-19T16:59:19.733Z,10.48
2022-10-19T17:01:47.110Z,8.32
2022-10-19T17:04:15.231Z,7.78
2022-10-19T17:06:42.021Z,9.93
2022-10-19T17:09:40.883Z,7.80
2022-10-19T17:11:55.859Z,8.30
2022-10-19T17:14:22.601Z,7.28
2022-10-19T17:16:49.492Z,8.35
2022-10-19T17:19:16.426Z,8.65
2022-10-19T17:21:43.198Z,9.02
2022-10-19T17:24:20.406Z,6.50
2022-10-19T17:26:48.752Z,7.30
2022-10-19T17:29:15.563Z,9.35
2022-10-19T17:31:42.949Z,9.15
2022-10-19T17:34:09.962Z,8.07
2022-10-19T17:39:09.759Z,6.70
2022-10-19T17:41:36.588Z,8.90
2022-10-19T17:44:04.797Z,10.05
2022-10-19T17:46:33.515Z,8.13
2022-10-19T17:49:00.729Z,11.95
2022-10-19T17:51:29.978Z,8.32
2022-10-19T17:54:01.302Z,6.68
2022-10-19T17:56:28.494Z,7.55
2022-10-19T17:58:57.000Z,8.30
2022-10-19T18:01:24.510Z,7.65
2022-10-19T18:03:51.337Z,9.32
2022-10-19T18:06:23.875Z,13.23
2022-10-19T18:08:55.644Z,8.82
2022-10-19T18:11:27.850Z,6.82
2022-10-19T18:13:57.074Z,9.63
2022-10-19T18:16:26.814Z,7.93
2022-10-19T18:18:55.591Z,8.10
2022-10-19T18:21:25.686Z,11.02
2022-10-19T18:23:53.705Z,8.30
2022-10-19T18:26:23.268Z,10.20
2022-10-19T18:28:52.498Z,8.95
2022-10-19T18:31:29.317Z,9.45
2022-10-19T18:34:04.508Z,8.90
2022-10-19T18:36:32.196Z,7.53
2022-10-19T18:39:03.406Z,8.95
2022-10-19T18:41:30.801Z,9.18
2022-10-19T18:44:03.862Z,11.38
2022-10-19T18:46:32.393Z,11.52
2022-10-19T18:49:03.987Z,10.27
2022-10-19T18:51:31.957Z,8.18
2022-10-19T18:53:59.148Z,6.72
2022-10-19T18:56:26.383Z,10.20
2022-10-19T18:58:53.160Z,8.52
2022-10-19T19:01:27.749Z,7.97
2022-10-19T19:04:01.341Z,8.65
2022-10-19T19:06:29.770Z,9.18
2022-10-19T19:08:57.939Z,6.68
2022-10-19T19:11:31.813Z,10.55
2022-10-19T19:14:13.099Z,8.80
2022-10-19T19:16:41.365Z,10.68
2022-10-19T19:19:08.723Z,14.82
2022-10-19T19:21:36.712Z,9.10
2022-10-19T19:24:05.986Z,14.35
2022-10-19T19:26:36.989Z,8.63
2022-10-19T19:29:04.489Z,9.75
2022-10-19T19:31:31.399Z,11.00
2022-10-19T19:34:00.983Z,10.38
2022-10-19T19:36:28.366Z,9.32
2022-10-19T19:38:56.643Z,8.07
2022-10-19T19:41:23.462Z,9.88
2022-10-19T19:43:50.234Z,9.20
2022-10-19T19:46:19.107Z,8.10
2022-10-19T19:48:47.749Z,10.35
2022-10-19T19:51:17.353Z,9.77
2022-10-19T19:53:44.404Z,9.02
2022-10-19T19:56:12.677Z,12.98
2022-10-19T19:58:40.023Z,11.70
2022-10-19T20:01:15.515Z,12.82
2022-10-19T20:03:42.565Z,9.85
2022-10-19T20:06:10.277Z,10.88
2022-10-19T20:08:37.454Z,11.88
2022-10-19T20:11:06.890Z,10.90
2022-10-19T20:13:34.787Z,10.35
2022-10-19T20:16:10.103Z,9.98
2022-10-19T20:18:36.872Z,14.20
2022-10-19T20:21:04.932Z,11.55
2022-10-19T20:23:31.832Z,9.57
2022-10-19T20:25:59.048Z,10.73
2022-10-19T20:28:26.653Z,13.20
2022-10-19T20:31:05.486Z,14.48
2022-10-19T20:33:34.707Z,10.50
2022-10-19T20:36:06.535Z,11.20
2022-10-19T20:38:34.244Z,12.88
2022-10-19T20:41:07.784Z,11.07
2022-10-19T20:43:38.640Z,11.30
2022-10-19T20:46:16.474Z,12.80
2022-10-19T20:48:43.781Z,13.20
2022-10-19T20:51:30.601Z,11.57
2022-10-19T20:54:00.648Z,16.65
2022-10-19T20:56:30.195Z,18.13
2022-10-19T20:59:05.950Z,13.52
2022-10-19T21:01:35.015Z,12.63
2022-10-19T21:04:04.611Z,11.63
2022-10-19T21:06:33.926Z,15.05
2022-10-19T21:09:01.086Z,19.65
2022-10-19T21:11:33.219Z,11.98
2022-10-19T21:14:02.524Z,16.92
2022-10-19T21:16:30.321Z,13.35
2022-10-19T21:18:57.955Z,16.92
2022-10-19T21:21:27.356Z,13.93
2022-10-19T21:23:58.046Z,16.70
2022-10-19T21:26:26.608Z,14.20
2022-10-19T21:28:53.600Z,16.10
2022-10-19T21:31:21.854Z,14.60
2022-10-19T21:33:48.910Z,20.13
2022-10-19T21:36:15.792Z,13.88
2022-10-19T21:38:42.943Z,16.77
2022-10-19T21:41:14.955Z,14.00
2022-10-19T21:43:42.082Z,21.05
2022-10-19T21:46:12.866Z,19.27
2022-10-19T21:48:39.842Z,16.27
2022-10-19T21:51:46.577Z,15.20
2022-10-19T21:54:16.080Z,14.18
2022-10-19T21:56:43.644Z,14.02
2022-10-19T21:59:18.778Z,15.82
2022-10-19T22:01:45.626Z,18.48
2022-10-19T22:04:17.198Z,16.10
2022-10-19T22:06:44.379Z,16.60
2022-10-19T22:09:13.925Z,18.75
2022-10-19T22:11:40.799Z,17.42
2022-10-19T22:14:07.667Z,19.95
2022-10-19T22:16:36.971Z,20.63
2022-10-19T22:19:05.353Z,17.00
2022-10-19T22:21:33.507Z,19.15
2022-10-19T22:24:02.311Z,19.88
2022-10-19T22:26:31.669Z,19.90
2022-10-19T22:28:59.838Z,18.42
2022-10-19T22:31:27.975Z,20.30
2022-10-19T22:33:54.814Z,18.83
2022-10-19T22:36:21.899Z,16.35
2022-10-19T22:38:48.811Z,18.77
2022-10-19T22:41:15.524Z,16.77
2022-10-19T22:43:42.263Z,17.38
2022-10-19T22:46:09.022Z,17.05
2022-10-19T22:48:35.835Z,19.05
2022-10-19T22:51:02.644Z,18.38
2022-10-19T22:53:29.380Z,17.17
2022-10-19T22:55:58.338Z,16.35
2022-10-19T22:58:25.067Z,15.05
2022-10-19T23:01:09.532Z,18.70
2022-10-19T23:03:37.621Z,16.35
2022-10-19T23:06:04.418Z,18.85
2022-10-19T23:08:31.258Z,17.27
2022-10-19T23:10:58.009Z,20.60
2022-10-19T23:13:24.802Z,19.52
2022-10-19T23:15:51.645Z,23.58
2022-10-19T23:18:18.522Z,19.73
2022-10-19T23:21:00.100Z,17.95
2022-10-19T23:23:28.057Z,18.33
2022-10-19T23:26:09.300Z,17.23
2022-10-19T23:31:07.383Z,19.40
2022-10-19T23:33:34.889Z,17.38
2022-10-19T23:36:10.269Z,21.83
2022-10-19T23:38:36.984Z,23.23
2022-10-19T23:41:04.245Z,20.85
2022-10-19T23:43:31.391Z,18.50
2022-10-19T23:45:58.523Z,20.35
2022-10-19T23:48:25.445Z,22.00
2022-10-19T23:51:02.582Z,17.65
2022-10-19T23:53:30.469Z,20.23
2022-10-19T23:56:01.806Z,20.48
2022-10-19T23:58:28.776Z,16.90
